Nearby METAR Reports

 

NZCH - Christchurch Int, New Zealand
Distance from station: W 10km
Updated: 15 Aug 2020 22:00
Mist, Partly cloudy
Mist, Partly cloudy
 Wind from WSW
Wind: WSW 6 km/h
Temperature: 2°C
Dew Point: 2°C
Humidity: 100%
Barometer: 1029 hPa
Summary: Mist
Clouds: Partly cloudy
Visibility: 4 km
Cloud details: Partly cloudy 701 m
2020/08/15 10:00 NZCH 151000Z AUTO 24003KT 4200 BR SCT023/// 02/02 Q1029 TEMPO 9999 NSW